createdAt,value
2018-05-03T00:00:51.785Z,4.13
2018-05-03T00:01:52.259Z,4.12
2018-05-03T00:02:52.735Z,4.14
2018-05-03T00:03:53.209Z,4.12
2018-05-03T00:04:53.682Z,4.11
2018-05-03T00:05:54.158Z,4.10
2018-05-03T00:06:54.629Z,4.09
2018-05-03T00:07:55.112Z,4.10
2018-05-03T00:08:55.580Z,4.10
2018-05-03T00:09:56.050Z,4.09
2018-05-03T00:10:56.528Z,4.08
2018-05-03T00:11:56.998Z,4.08
2018-05-03T00:12:57.471Z,4.08
2018-05-03T00:13:57.943Z,4.07
2018-05-03T00:14:58.416Z,4.07
2018-05-03T00:15:58.888Z,4.04
2018-05-03T00:16:59.361Z,4.06
2018-05-03T00:17:59.834Z,4.04
2018-05-03T00:19:00.307Z,4.04
2018-05-03T00:20:00.777Z,4.04
2018-05-03T00:21:01.249Z,4.03
2018-05-03T00:22:01.720Z,4.04
2018-05-03T00:23:02.190Z,4.03
2018-05-03T00:24:02.663Z,4.02
2018-05-03T00:25:03.135Z,4.01
2018-05-03T00:26:03.603Z,4.02
2018-05-03T00:27:04.072Z,4.00
2018-05-03T00:28:04.544Z,4.00
2018-05-03T00:29:05.015Z,3.98
2018-05-03T00:30:05.483Z,3.98
2018-05-03T00:31:05.954Z,3.97
2018-05-03T00:32:06.424Z,3.95
2018-05-03T00:33:06.896Z,3.96
2018-05-03T00:34:07.363Z,3.94
2018-05-03T00:35:07.835Z,3.95
2018-05-03T00:36:08.304Z,3.94
2018-05-03T00:37:08.776Z,3.93
2018-05-03T00:38:09.244Z,3.93
2018-05-03T00:39:09.720Z,3.92
2018-05-03T00:40:10.186Z,3.90
2018-05-03T00:41:10.656Z,3.91
2018-05-03T00:42:11.125Z,3.91
2018-05-03T00:43:11.596Z,3.88
2018-05-03T00:44:12.066Z,3.87
2018-05-03T00:45:12.535Z,3.88
2018-05-03T00:46:13.006Z,3.86
2018-05-03T00:47:13.514Z,3.86
2018-05-03T00:48:13.951Z,3.84
2018-05-03T00:49:14.417Z,3.84
2018-05-03T00:50:14.886Z,3.85
2018-05-03T00:51:15.359Z,3.83
2018-05-03T00:52:15.832Z,3.83
2018-05-03T00:53:16.300Z,3.82
2018-05-03T00:54:16.777Z,3.81
2018-05-03T00:55:17.245Z,3.80
2018-05-03T00:56:17.715Z,3.80
2018-05-03T00:57:18.185Z,3.77
2018-05-03T00:58:18.656Z,3.76
2018-05-03T00:59:19.127Z,3.78
2018-05-03T01:00:19.599Z,3.76
2018-05-03T01:01:20.070Z,3.76
2018-05-03T01:02:20.541Z,3.76
2018-05-03T01:03:21.015Z,3.76
2018-05-03T01:04:21.487Z,3.74
2018-05-03T01:05:21.960Z,3.74
2018-05-03T01:06:22.429Z,3.74
2018-05-03T01:07:22.902Z,3.73
2018-05-03T01:08:23.376Z,3.72
2018-05-03T01:09:23.848Z,3.70
2018-05-03T01:10:24.316Z,3.72
2018-05-03T01:11:24.792Z,3.70
2018-05-03T01:12:25.263Z,3.70
2018-05-03T01:13:25.737Z,3.70
2018-05-03T01:14:26.206Z,3.70
2018-05-03T01:15:26.682Z,3.69
2018-05-03T01:16:27.156Z,3.69
2018-05-03T01:17:27.626Z,3.68
2018-05-03T01:18:28.098Z,3.68
2018-05-03T01:19:28.622Z,3.66
2018-05-03T01:20:29.043Z,3.68
2018-05-03T01:21:29.516Z,3.66
2018-05-03T01:22:29.992Z,3.65
2018-05-03T01:23:30.466Z,3.65
2018-05-03T01:24:30.936Z,3.66
2018-05-03T01:25:31.410Z,3.65
2018-05-03T01:26:31.880Z,3.64
2018-05-03T01:27:32.354Z,3.64
2018-05-03T01:28:32.827Z,3.64
2018-05-03T01:29:33.352Z,3.64
2018-05-03T01:30:33.779Z,3.63
2018-05-03T01:31:34.248Z,3.62
2018-05-03T01:32:34.723Z,3.62
2018-05-03T01:33:35.196Z,3.60
2018-05-03T01:34:35.667Z,3.62
2018-05-03T01:35:36.142Z,3.60
2018-05-03T01:36:36.616Z,3.60
2018-05-03T01:37:37.089Z,3.60
2018-05-03T01:38:37.562Z,3.58
2018-05-03T01:39:38.042Z,3.60
2018-05-03T01:40:38.510Z,3.58
2018-05-03T01:41:38.985Z,3.58
2018-05-03T01:42:39.457Z,3.57
2018-05-03T01:43:39.931Z,3.58
2018-05-03T01:44:40.454Z,3.58
2018-05-03T01:45:40.882Z,3.55
2018-05-03T01:46:41.352Z,3.56
2018-05-03T01:47:41.825Z,3.54
2018-05-03T01:48:42.305Z,3.55
2018-05-03T01:49:42.775Z,3.56
2018-05-03T01:50:43.247Z,3.55
2018-05-03T01:51:43.725Z,3.54
2018-05-03T01:52:44.198Z,3.53
2018-05-03T01:53:44.671Z,3.53
2018-05-03T01:54:45.144Z,3.52
2018-05-03T01:55:45.622Z,3.52
2018-05-03T01:56:46.093Z,3.52
2018-05-03T01:57:46.567Z,3.52
2018-05-03T01:58:47.043Z,3.50
2018-05-03T01:59:47.521Z,3.48
2018-05-03T02:01:48.462Z,3.50
2018-05-03T02:02:49.136Z,3.50
2018-05-03T02:03:49.409Z,3.48
2018-05-03T02:04:49.881Z,3.48
2018-05-03T02:05:50.354Z,3.48
2018-05-03T02:06:50.827Z,3.48
2018-05-03T02:07:51.301Z,3.47
2018-05-03T02:08:51.771Z,3.47
2018-05-03T02:09:52.296Z,3.48
2018-05-03T02:10:52.713Z,3.48
2018-05-03T02:12:53.660Z,3.48
2018-05-03T02:13:54.136Z,3.47
2018-05-03T02:14:54.599Z,3.45
2018-05-03T02:15:55.070Z,3.46
2018-05-03T02:16:55.540Z,3.45
2018-05-03T02:17:56.010Z,3.44
2018-05-03T02:18:56.481Z,3.44
2018-05-03T02:19:56.950Z,3.43
2018-05-03T02:20:57.420Z,3.42
2018-05-03T02:21:57.891Z,3.42
2018-05-03T02:22:58.361Z,3.41
2018-05-03T02:23:58.832Z,3.42
2018-05-03T02:24:59.350Z,3.40
2018-05-03T02:25:59.810Z,3.40
2018-05-03T02:27:00.240Z,3.40
2018-05-03T02:28:00.710Z,3.39
2018-05-03T02:29:01.179Z,3.39
2018-05-03T02:30:01.700Z,3.38
2018-05-03T02:31:02.121Z,3.37
2018-05-03T02:32:02.588Z,3.38
2018-05-03T02:33:03.061Z,3.38
2018-05-03T02:34:03.530Z,3.38
2018-05-03T02:35:03.998Z,3.38
2018-05-03T02:36:04.469Z,3.37
2018-05-03T02:37:04.942Z,3.35
2018-05-03T02:38:05.409Z,3.35
2018-05-03T02:39:05.879Z,3.36
2018-05-03T02:40:06.400Z,3.35
2018-05-03T02:41:06.820Z,3.34
2018-05-03T02:42:07.294Z,3.32
2018-05-03T02:43:07.761Z,3.34
2018-05-03T02:44:08.571Z,3.33
2018-05-03T02:45:08.701Z,3.34
2018-05-03T02:46:09.173Z,3.32
2018-05-03T02:47:09.643Z,3.32
2018-05-03T02:48:10.153Z,3.32
2018-05-03T02:49:10.585Z,3.31
2018-05-03T02:50:11.061Z,3.31
2018-05-03T02:51:11.526Z,3.31
2018-05-03T02:52:12.003Z,3.32
2018-05-03T02:53:12.469Z,3.30
2018-05-03T02:54:12.940Z,3.29
2018-05-03T02:55:13.457Z,3.28
2018-05-03T02:56:13.882Z,3.28
2018-05-03T02:57:14.355Z,3.27
2018-05-03T02:58:14.826Z,3.28
2018-05-03T02:59:15.297Z,3.26
2018-05-03T03:00:16.111Z,3.26
2018-05-03T03:01:16.241Z,3.26
2018-05-03T03:02:16.727Z,3.25
2018-05-03T03:03:17.184Z,3.24
2018-05-03T03:04:17.659Z,3.24
2018-05-03T03:05:18.130Z,3.25
2018-05-03T03:06:18.604Z,3.24
2018-05-03T03:07:19.072Z,3.25
2018-05-03T03:08:19.545Z,3.22
2018-05-03T03:09:20.021Z,3.24
2018-05-03T03:10:20.492Z,3.22
2018-05-03T03:11:20.961Z,3.20
2018-05-03T03:12:21.435Z,3.23
2018-05-03T03:13:21.948Z,3.19
2018-05-03T03:14:22.721Z,3.20
2018-05-03T03:15:22.903Z,3.20
2018-05-03T03:16:23.326Z,3.20
2018-05-03T03:17:23.799Z,3.20
2018-05-03T03:18:24.271Z,3.18
2018-05-03T03:19:24.747Z,3.18
2018-05-03T03:20:25.216Z,3.18
2018-05-03T03:21:25.689Z,3.18
2018-05-03T03:22:26.507Z,3.14
2018-05-03T03:23:26.635Z,3.17
2018-05-03T03:24:27.109Z,3.16
2018-05-03T03:25:27.620Z,3.15
2018-05-03T03:26:28.054Z,3.16
2018-05-03T03:27:28.527Z,3.16
2018-05-03T03:28:29.000Z,3.16
2018-05-03T03:29:29.475Z,3.15
2018-05-03T03:30:30.002Z,3.14
2018-05-03T03:31:30.420Z,3.13
2018-05-03T03:32:30.896Z,3.12
2018-05-03T03:33:31.370Z,3.14
2018-05-03T03:34:31.840Z,3.13
2018-05-03T03:35:32.363Z,3.12
2018-05-03T03:36:32.785Z,3.11
2018-05-03T03:37:33.259Z,3.10
2018-05-03T03:38:33.733Z,3.12
2018-05-03T03:39:34.205Z,3.11
2018-05-03T03:40:34.679Z,3.10
2018-05-03T03:41:35.494Z,3.10
2018-05-03T03:42:35.969Z,3.11
2018-05-03T03:43:36.101Z,3.11
2018-05-03T03:44:36.777Z,3.10
2018-05-03T03:45:37.048Z,3.10
2018-05-03T03:46:37.521Z,3.08
2018-05-03T03:47:37.996Z,3.08
2018-05-03T03:48:38.470Z,3.07
2018-05-03T03:49:38.941Z,3.08
2018-05-03T03:50:39.465Z,3.09
2018-05-03T03:51:39.889Z,3.06
2018-05-03T03:52:40.400Z,3.06
2018-05-03T03:53:41.177Z,3.07
2018-05-03T03:54:41.309Z,3.08
2018-05-03T03:55:41.788Z,3.06
2018-05-03T03:56:42.257Z,3.04
2018-05-03T03:57:43.072Z,3.04
2018-05-03T03:58:43.205Z,3.06
2018-05-03T03:59:43.678Z,3.06
2018-05-03T04:00:44.207Z,3.04
2018-05-03T04:01:44.627Z,3.05
2018-05-03T04:02:45.101Z,3.04
2018-05-03T04:03:45.574Z,3.02
2018-05-03T04:04:46.052Z,3.03
2018-05-03T04:05:46.525Z,3.00
2018-05-03T04:06:46.996Z,2.97
2018-05-03T04:07:47.472Z,3.00
2018-05-03T04:08:47.942Z,3.00
2018-05-03T04:09:48.418Z,2.98
2018-05-03T04:10:48.945Z,3.00
2018-05-03T04:11:49.363Z,2.99
2018-05-03T04:12:49.838Z,2.98
2018-05-03T04:13:50.310Z,2.98
2018-05-03T04:14:50.790Z,2.98
2018-05-03T04:15:51.256Z,3.00
2018-05-03T04:16:51.729Z,2.96
2018-05-03T04:17:52.200Z,2.97
2018-05-03T04:18:52.672Z,2.97
2018-05-03T04:19:53.143Z,2.96
2018-05-03T04:20:53.616Z,2.94
2018-05-03T04:21:54.087Z,2.94
2018-05-03T04:22:54.559Z,2.92
2018-05-03T04:23:55.032Z,2.95
2018-05-03T04:24:55.501Z,2.94
2018-05-03T04:25:56.312Z,2.94
2018-05-03T04:26:56.443Z,2.93
2018-05-03T04:27:56.914Z,2.96
2018-05-03T04:28:57.382Z,2.96
2018-05-03T04:29:57.852Z,2.92
2018-05-03T04:30:58.324Z,2.92
2018-05-03T04:31:58.792Z,2.90
2018-05-03T04:32:59.263Z,2.92
2018-05-03T04:33:59.732Z,2.90
2018-05-03T04:35:00.203Z,2.92
2018-05-03T04:36:00.674Z,2.89
2018-05-03T04:37:01.181Z,2.94
2018-05-03T04:38:01.613Z,2.91
2018-05-03T04:39:02.084Z,2.91
2018-05-03T04:40:02.551Z,2.90
2018-05-03T04:41:03.028Z,2.92
2018-05-03T04:42:03.494Z,2.89
2018-05-03T04:43:03.963Z,2.89
2018-05-03T04:44:04.431Z,2.90
2018-05-03T04:45:04.902Z,2.91
2018-05-03T04:46:05.423Z,2.90
2018-05-03T04:47:05.842Z,2.90
2018-05-03T04:48:06.315Z,2.89
2018-05-03T04:49:06.781Z,2.91
2018-05-03T04:50:07.255Z,2.92
2018-05-03T04:51:07.774Z,2.94
2018-05-03T04:52:08.193Z,2.94
2018-05-03T04:53:08.665Z,2.92
2018-05-03T04:54:09.155Z,2.95
2018-05-03T04:55:09.606Z,2.96
2018-05-03T04:56:10.080Z,2.98
2018-05-03T04:57:10.548Z,2.98
2018-05-03T04:58:11.020Z,3.00
2018-05-03T04:59:11.491Z,3.00
2018-05-03T05:00:11.962Z,3.01
2018-05-03T05:01:12.433Z,3.02
2018-05-03T05:02:13.246Z,3.03
2018-05-03T05:03:13.376Z,3.02
2018-05-03T05:04:14.187Z,3.04
2018-05-03T05:05:14.319Z,3.04
2018-05-03T05:06:14.793Z,3.10
2018-05-03T05:07:15.268Z,3.08
2018-05-03T05:08:15.735Z,3.10
2018-05-03T05:09:16.209Z,3.12
2018-05-03T05:10:16.680Z,3.14
2018-05-03T05:11:17.204Z,3.14
2018-05-03T05:12:17.624Z,3.15
2018-05-03T05:13:18.096Z,3.18
2018-05-03T05:14:18.569Z,3.17
2018-05-03T05:15:19.042Z,3.18
2018-05-03T05:16:19.564Z,3.20
2018-05-03T05:17:19.987Z,3.22
2018-05-03T05:18:20.463Z,3.22
2018-05-03T05:19:20.935Z,3.24
2018-05-03T05:20:21.406Z,3.26
2018-05-03T05:21:21.877Z,3.28
2018-05-03T05:22:22.352Z,3.28
2018-05-03T05:24:23.297Z,3.30
2018-05-03T05:25:23.771Z,3.31
2018-05-03T05:26:24.297Z,3.33
2018-05-03T05:27:24.719Z,3.34
2018-05-03T05:28:25.189Z,3.36
2018-05-03T05:29:25.663Z,3.35
2018-05-03T05:30:26.138Z,3.38
2018-05-03T05:31:26.611Z,3.40
2018-05-03T05:32:27.086Z,3.40
2018-05-03T05:33:27.559Z,3.43
2018-05-03T05:34:28.033Z,3.46
2018-05-03T05:35:28.508Z,3.46
2018-05-03T05:36:29.029Z,3.48
2018-05-03T05:37:29.453Z,3.51
2018-05-03T05:38:29.995Z,3.52
2018-05-03T05:39:30.404Z,3.53
2018-05-03T05:40:30.873Z,3.55
2018-05-03T05:41:31.352Z,3.57
2018-05-03T05:42:32.164Z,3.58
2018-05-03T05:43:32.299Z,3.60
2018-05-03T05:44:32.771Z,3.62
2018-05-03T05:45:33.246Z,3.62
2018-05-03T05:46:33.720Z,3.62
2018-05-03T05:47:34.193Z,3.64
2018-05-03T05:48:34.668Z,3.66
2018-05-03T05:49:35.143Z,3.68
2018-05-03T05:50:35.618Z,3.69
2018-05-03T05:51:36.090Z,3.72
2018-05-03T05:52:36.567Z,3.72
2018-05-03T05:53:37.037Z,3.74
2018-05-03T05:54:37.511Z,3.74
2018-05-03T05:55:37.985Z,3.76
2018-05-03T05:56:38.590Z,3.76
2018-05-03T05:57:38.933Z,3.78
2018-05-03T05:58:39.411Z,3.79
2018-05-03T05:59:39.880Z,3.80
2018-05-03T06:00:40.350Z,3.82
2018-05-03T06:01:40.822Z,3.83
2018-05-03T06:02:41.295Z,3.85
2018-05-03T06:03:41.768Z,3.85
2018-05-03T06:04:42.238Z,3.86
2018-05-03T06:05:42.709Z,3.86
2018-05-03T06:06:43.183Z,3.88
2018-05-03T06:07:43.653Z,3.89
2018-05-03T06:08:44.127Z,3.89
2018-05-03T06:09:44.595Z,3.90
2018-05-03T06:10:45.065Z,3.90
2018-05-03T06:11:45.536Z,3.90
2018-05-03T06:12:46.006Z,3.92
2018-05-03T06:13:46.477Z,3.93
2018-05-03T06:14:46.946Z,3.94
2018-05-03T06:15:47.417Z,3.94
2018-05-03T06:16:47.887Z,3.96
2018-05-03T06:17:48.357Z,3.96
2018-05-03T06:18:48.829Z,3.98
2018-05-03T06:19:49.297Z,4.00
2018-05-03T06:20:49.768Z,3.98
2018-05-03T06:21:50.238Z,3.99
2018-05-03T06:22:50.707Z,3.99
2018-05-03T06:23:51.186Z,4.02
2018-05-03T06:24:51.648Z,4.03
2018-05-03T06:25:52.182Z,4.03
2018-05-03T06:26:52.640Z,4.03
2018-05-03T06:27:53.134Z,4.05
2018-05-03T06:28:53.528Z,4.05
2018-05-03T06:29:54.000Z,4.05
2018-05-03T06:30:54.469Z,4.06
2018-05-03T06:31:54.991Z,4.07
2018-05-03T06:32:55.419Z,4.08
2018-05-03T06:33:55.884Z,4.08
2018-05-03T06:34:56.352Z,4.08
2018-05-03T06:35:56.826Z,4.10
2018-05-03T06:36:57.297Z,4.11
2018-05-03T06:37:57.767Z,4.11
2018-05-03T06:38:58.299Z,4.13
2018-05-03T06:39:58.713Z,4.13
2018-05-03T06:40:59.180Z,4.15
2018-05-03T06:41:59.651Z,4.16
2018-05-03T06:43:00.125Z,4.18
2018-05-03T06:44:00.595Z,4.18
2018-05-03T06:45:01.071Z,4.20
2018-05-03T06:46:01.541Z,4.22
2018-05-03T06:47:02.013Z,4.24
2018-05-03T06:48:02.483Z,4.25
2018-05-03T06:49:02.954Z,4.26
2018-05-03T06:50:03.426Z,4.28
2018-05-03T06:51:03.902Z,4.32
2018-05-03T06:52:07.015Z,4.34
2018-05-03T06:53:04.847Z,4.36
2018-05-03T06:54:05.324Z,4.39
2018-05-03T06:55:05.794Z,4.42
2018-05-03T06:56:06.267Z,4.43
2018-05-03T06:57:06.739Z,4.46
2018-05-03T06:58:07.249Z,4.46
2018-05-03T06:59:07.686Z,4.50
2018-05-03T07:00:08.502Z,4.52
2018-05-03T07:01:08.632Z,4.57
2018-05-03T07:02:09.106Z,4.58
2018-05-03T07:03:09.582Z,4.63
2018-05-03T07:04:10.124Z,4.66
2018-05-03T07:05:10.529Z,4.69
2018-05-03T07:06:11.003Z,4.72
2018-05-03T07:07:11.475Z,4.76
2018-05-03T07:08:11.952Z,4.81
2018-05-03T07:09:12.423Z,4.82
2018-05-03T07:10:12.901Z,4.86
2018-05-03T07:11:13.373Z,4.90
2018-05-03T07:12:13.847Z,4.94
2018-05-03T07:13:14.327Z,4.99
2018-05-03T07:14:14.796Z,5.03
2018-05-03T07:15:15.271Z,5.08
2018-05-03T07:16:15.777Z,5.13
2018-05-03T07:17:16.224Z,5.18
2018-05-03T07:18:16.732Z,5.23
2018-05-03T07:19:17.173Z,5.27
2018-05-03T07:20:17.647Z,5.32
2018-05-03T07:21:18.119Z,5.37
2018-05-03T07:22:18.596Z,5.43
2018-05-03T07:23:19.118Z,5.48
2018-05-03T07:24:19.546Z,5.53
2018-05-03T07:25:20.053Z,5.58
2018-05-03T07:26:20.489Z,5.62
2018-05-03T07:27:20.965Z,5.70
2018-05-03T07:28:21.489Z,5.76
2018-05-03T07:29:21.931Z,5.82
2018-05-03T07:30:22.391Z,5.86
2018-05-03T07:31:22.859Z,5.93
2018-05-03T07:32:23.332Z,5.99
2018-05-03T07:33:23.807Z,6.06
2018-05-03T07:34:24.277Z,6.12
2018-05-03T07:35:24.749Z,6.18
2018-05-03T07:36:25.225Z,6.26
2018-05-03T07:37:25.694Z,6.32
2018-05-03T07:38:26.166Z,6.38
2018-05-03T07:39:26.638Z,6.46
2018-05-03T07:40:27.110Z,6.54
2018-05-03T07:41:27.581Z,6.62
2018-05-03T07:42:28.055Z,6.68
2018-05-03T07:43:28.915Z,6.76
2018-05-03T07:44:28.997Z,6.83
2018-05-03T07:45:29.470Z,6.90
2018-05-03T07:46:29.938Z,6.97
2018-05-03T07:47:30.411Z,7.05
2018-05-03T07:48:30.980Z,7.12
2018-05-03T07:49:31.357Z,7.18
2018-05-03T07:50:31.824Z,7.27
2018-05-03T07:51:32.295Z,7.34
2018-05-03T07:52:32.953Z,7.42
2018-05-03T07:53:33.238Z,7.50
2018-05-03T07:54:33.709Z,7.56
2018-05-03T07:55:34.185Z,7.62
2018-05-03T07:56:34.689Z,7.69
2018-05-03T07:57:35.124Z,7.77
2018-05-03T07:58:35.647Z,7.84
2018-05-03T07:59:36.068Z,7.93
2018-05-03T08:00:36.540Z,8.00
2018-05-03T08:01:37.012Z,8.04
2018-05-03T08:02:37.485Z,8.13
2018-05-03T08:03:38.009Z,8.22
2018-05-03T08:04:38.432Z,8.27
2018-05-03T08:05:38.904Z,8.34
2018-05-03T08:06:39.376Z,8.43
2018-05-03T08:07:39.849Z,8.50
2018-05-03T08:08:40.322Z,8.58
2018-05-03T08:09:40.797Z,8.64
2018-05-03T08:10:41.268Z,8.70
2018-05-03T08:11:41.742Z,8.78
2018-05-03T08:12:42.248Z,8.85
2018-05-03T08:13:42.692Z,8.92
2018-05-03T08:14:43.171Z,9.00
2018-05-03T08:15:43.640Z,9.08
2018-05-03T08:16:44.113Z,9.13
2018-05-03T08:17:44.588Z,9.22
2018-05-03T08:18:45.215Z,9.28
2018-05-03T08:19:45.537Z,9.36
2018-05-03T08:20:46.016Z,9.42
2018-05-03T08:21:46.486Z,9.50
2018-05-03T08:22:46.961Z,9.60
2018-05-03T08:23:47.488Z,9.68
2018-05-03T08:24:47.912Z,9.77
2018-05-03T08:25:48.388Z,9.86
2018-05-03T08:26:48.866Z,9.93
2018-05-03T08:27:49.340Z,10.02
2018-05-03T08:28:49.815Z,10.10
2018-05-03T08:29:50.289Z,10.20
2018-05-03T08:30:50.765Z,10.28
2018-05-03T08:31:51.273Z,10.39
2018-05-03T08:32:51.717Z,10.48
2018-05-03T08:33:52.191Z,10.58
2018-05-03T08:34:52.666Z,10.67
2018-05-03T08:35:53.139Z,10.77
2018-05-03T08:36:53.616Z,10.88
2018-05-03T08:37:54.089Z,10.98
2018-05-03T08:38:54.564Z,11.08
2018-05-03T08:39:55.044Z,11.18
2018-05-03T08:40:55.513Z,11.28
2018-05-03T08:41:55.989Z,11.38
2018-05-03T08:42:56.462Z,11.46
2018-05-03T08:43:56.935Z,11.56
2018-05-03T08:44:57.409Z,11.66
2018-05-03T08:45:57.881Z,11.74
2018-05-03T08:46:58.356Z,11.81
2018-05-03T08:47:58.828Z,11.90
2018-05-03T08:48:59.351Z,11.96
2018-05-03T08:49:59.782Z,12.06
2018-05-03T08:51:00.275Z,12.13
2018-05-03T08:52:00.721Z,12.21
2018-05-03T08:53:01.192Z,12.29
2018-05-03T08:54:01.714Z,12.37
2018-05-03T08:55:02.137Z,12.46
2018-05-03T08:56:02.607Z,12.52
2018-05-03T08:57:03.080Z,12.60
2018-05-03T08:58:03.550Z,12.70
2018-05-03T08:59:04.023Z,12.78
2018-05-03T09:00:04.496Z,12.85
2018-05-03T09:01:04.970Z,12.96
2018-05-03T09:02:05.437Z,13.04
2018-05-03T09:03:05.910Z,13.13
2018-05-03T09:04:06.383Z,13.23
2018-05-03T09:05:06.856Z,13.33
2018-05-03T09:06:07.327Z,13.42
2018-05-03T09:07:07.798Z,13.52
2018-05-03T09:08:08.270Z,13.59
2018-05-03T09:09:08.797Z,13.68
2018-05-03T09:10:09.221Z,13.76
2018-05-03T09:11:09.688Z,13.86
2018-05-03T09:12:10.162Z,13.94
2018-05-03T09:13:10.634Z,14.02
2018-05-03T09:14:11.262Z,14.10
2018-05-03T09:15:11.579Z,14.20
2018-05-03T09:16:12.054Z,14.27
2018-05-03T09:17:12.527Z,14.35
2018-05-03T09:18:13.004Z,14.40
2018-05-03T09:19:13.477Z,14.49
2018-05-03T09:20:13.951Z,14.54
2018-05-03T09:21:14.424Z,14.58
2018-05-03T09:22:14.899Z,14.62
2018-05-03T09:23:15.373Z,14.66
2018-05-03T09:24:15.900Z,14.70
2018-05-03T09:25:16.325Z,14.76
2018-05-03T09:26:16.800Z,14.82
2018-05-03T09:27:17.477Z,14.84
2018-05-03T09:28:17.754Z,14.89
2018-05-03T09:29:18.379Z,14.92
2018-05-03T09:30:18.705Z,14.94
2018-05-03T09:31:19.178Z,14.98
2018-05-03T09:32:19.655Z,15.02
2018-05-03T09:33:20.130Z,15.04
2018-05-03T09:34:20.606Z,15.06
2018-05-03T09:35:21.083Z,15.10
2018-05-03T09:36:21.559Z,15.12
2018-05-03T09:37:22.035Z,15.15
2018-05-03T09:38:22.511Z,15.15
2018-05-03T09:39:22.986Z,15.17
2018-05-03T09:40:23.546Z,15.19
2018-05-03T09:41:23.938Z,15.22
2018-05-03T09:42:24.417Z,15.22
2018-05-03T09:43:24.889Z,15.22
2018-05-03T09:44:25.395Z,15.22
2018-05-03T09:45:25.842Z,15.21
2018-05-03T09:46:26.314Z,15.19
2018-05-03T09:47:26.791Z,15.18
2018-05-03T09:48:27.266Z,15.16
2018-05-03T09:49:27.790Z,15.15
2018-05-03T09:50:28.215Z,15.14
2018-05-03T09:51:28.688Z,15.11
2018-05-03T09:52:29.220Z,15.09
2018-05-03T09:53:29.638Z,15.09
2018-05-03T09:54:30.162Z,15.08
2018-05-03T09:55:30.586Z,15.06
2018-05-03T09:56:31.060Z,15.04
2018-05-03T09:57:31.535Z,15.03
2018-05-03T09:58:32.007Z,15.04
2018-05-03T09:59:32.533Z,15.02
2018-05-03T10:00:32.958Z,15.02
2018-05-03T10:01:33.426Z,15.00
2018-05-03T10:02:33.898Z,15.01
2018-05-03T10:03:34.372Z,15.00
2018-05-03T10:04:34.846Z,15.00
2018-05-03T10:05:35.320Z,14.99
2018-05-03T10:06:35.792Z,14.98
2018-05-03T10:07:36.264Z,14.99
2018-05-03T10:08:36.735Z,14.98
2018-05-03T10:09:37.208Z,14.98
2018-05-03T10:10:37.683Z,14.97
2018-05-03T10:11:38.151Z,14.96
2018-05-03T10:12:38.623Z,14.96
2018-05-03T10:13:39.096Z,14.96
2018-05-03T10:14:39.626Z,14.94
2018-05-03T10:15:40.046Z,14.92
2018-05-03T10:16:40.513Z,14.92
2018-05-03T10:17:40.987Z,14.90
2018-05-03T10:18:41.457Z,14.89
2018-05-03T10:19:41.932Z,14.87
2018-05-03T10:20:42.403Z,14.85
2018-05-03T10:21:42.920Z,14.84
2018-05-03T10:22:43.351Z,14.81
2018-05-03T10:23:43.824Z,14.79
2018-05-03T10:24:44.450Z,14.76
2018-05-03T10:26:45.242Z,14.70
2018-05-03T10:27:45.716Z,14.68
2018-05-03T10:28:46.189Z,14.65
2018-05-03T10:29:46.715Z,14.64
2018-05-03T10:30:47.137Z,14.62
2018-05-03T10:31:47.612Z,14.60
2018-05-03T10:32:48.088Z,14.58
2018-05-03T10:33:48.562Z,14.56
2018-05-03T10:34:49.036Z,14.55
2018-05-03T10:35:49.557Z,14.55
2018-05-03T10:36:50.029Z,14.54
2018-05-03T10:37:50.465Z,14.54
2018-05-03T10:38:50.940Z,14.53
2018-05-03T10:39:51.466Z,14.51
2018-05-03T10:40:51.891Z,14.52
2018-05-03T10:41:52.406Z,14.51
2018-05-03T10:42:52.841Z,14.50
2018-05-03T10:43:53.319Z,14.48
2018-05-03T10:44:53.794Z,14.47
2018-05-03T10:45:54.272Z,14.48
2018-05-03T10:46:54.746Z,14.48
2018-05-03T10:47:55.224Z,14.46
2018-05-03T10:48:55.709Z,14.47
2018-05-03T10:49:56.227Z,14.47
2018-05-03T10:50:56.654Z,14.48
2018-05-03T10:51:57.126Z,14.48
2018-05-03T10:52:57.602Z,14.48
2018-05-03T10:53:58.080Z,14.50
2018-05-03T10:54:58.707Z,14.50
2018-05-03T10:55:59.029Z,14.52
2018-05-03T10:56:59.507Z,14.51
2018-05-03T10:57:59.981Z,14.52
2018-05-03T10:59:00.455Z,14.51
2018-05-03T11:00:00.932Z,14.53
2018-05-03T11:01:01.405Z,14.54
2018-05-03T11:02:01.888Z,14.55
2018-05-03T11:03:02.356Z,14.55
2018-05-03T11:04:02.833Z,14.57
2018-05-03T11:05:03.304Z,14.58
2018-05-03T11:06:03.776Z,14.58
2018-05-03T11:07:04.251Z,14.59
2018-05-03T11:08:04.725Z,14.60
2018-05-03T11:09:05.202Z,14.61
2018-05-03T11:10:05.828Z,14.61
2018-05-03T11:11:06.190Z,14.62
2018-05-03T11:12:06.620Z,14.62
2018-05-03T11:13:07.093Z,14.62
2018-05-03T11:14:07.567Z,14.63
2018-05-03T11:15:08.040Z,14.64
2018-05-03T11:16:08.511Z,14.63
2018-05-03T11:17:08.984Z,14.64
2018-05-03T11:18:09.460Z,14.63
2018-05-03T11:19:09.936Z,14.64
2018-05-03T11:20:10.455Z,14.66
2018-05-03T11:21:10.876Z,14.67
2018-05-03T11:22:11.348Z,14.67
2018-05-03T11:23:11.820Z,14.68
2018-05-03T11:24:12.292Z,14.71
2018-05-03T11:25:12.813Z,14.71
2018-05-03T11:26:13.238Z,14.71
2018-05-03T11:27:13.710Z,14.73
2018-05-03T11:28:14.181Z,14.73
2018-05-03T11:29:14.654Z,14.75
2018-05-03T11:30:15.125Z,14.76
2018-05-03T11:31:15.598Z,14.76
2018-05-03T11:32:16.069Z,14.78
2018-05-03T11:33:16.543Z,14.78
2018-05-03T11:34:17.014Z,14.80
2018-05-03T11:35:17.640Z,14.82
2018-05-03T11:36:17.960Z,14.81
2018-05-03T11:37:18.437Z,14.82
2018-05-03T11:38:18.909Z,14.85
2018-05-03T11:39:19.381Z,14.87
2018-05-03T11:40:19.905Z,14.88
2018-05-03T11:41:20.326Z,14.90
2018-05-03T11:42:20.803Z,14.92
2018-05-03T11:43:21.277Z,14.91
2018-05-03T11:44:21.754Z,14.92
2018-05-03T11:45:22.277Z,14.95
2018-05-03T11:46:22.702Z,14.96
2018-05-03T11:47:23.176Z,14.96
2018-05-03T11:48:23.650Z,14.98
2018-05-03T11:49:24.128Z,15.00
2018-05-03T11:50:24.608Z,15.02
2018-05-03T11:51:25.078Z,15.02
2018-05-03T11:52:25.555Z,15.04
2018-05-03T11:53:26.032Z,15.04
2018-05-03T11:54:26.510Z,15.05
2018-05-03T11:55:27.135Z,15.08
2018-05-03T11:56:27.460Z,15.09
2018-05-03T11:57:27.937Z,15.12
2018-05-03T11:58:28.416Z,15.13
2018-05-03T11:59:28.977Z,15.14
2018-05-03T12:00:29.416Z,15.16
2018-05-03T12:01:29.843Z,15.17
2018-05-03T12:02:30.407Z,15.19
2018-05-03T12:03:30.796Z,15.21
2018-05-03T12:04:31.271Z,15.22
2018-05-03T12:05:31.748Z,15.22
2018-05-03T12:06:32.224Z,15.24
2018-05-03T12:07:32.699Z,15.26
2018-05-03T12:08:33.276Z,15.29
2018-05-03T12:09:33.649Z,15.29
2018-05-03T12:10:34.126Z,15.31
2018-05-03T12:11:34.599Z,15.32
2018-05-03T12:12:35.082Z,15.34
2018-05-03T12:13:35.552Z,15.34
2018-05-03T12:14:36.027Z,15.36
2018-05-03T12:15:36.502Z,15.36
2018-05-03T12:16:36.975Z,15.37
2018-05-03T12:17:37.449Z,15.38
2018-05-03T12:18:37.925Z,15.38
2018-05-03T12:19:38.400Z,15.40
2018-05-03T12:20:38.880Z,15.40
2018-05-03T12:21:39.350Z,15.42
2018-05-03T12:22:39.823Z,15.42
2018-05-03T12:23:40.295Z,15.42
2018-05-03T12:24:40.769Z,15.44
2018-05-03T12:25:41.245Z,15.44
2018-05-03T12:26:41.717Z,15.44
2018-05-03T12:27:42.189Z,15.44
2018-05-03T12:28:42.661Z,15.42
2018-05-03T12:29:43.139Z,15.42
2018-05-03T12:30:43.762Z,15.44
2018-05-03T12:31:44.080Z,15.44
2018-05-03T12:32:44.557Z,15.43
2018-05-03T12:33:45.028Z,15.42
2018-05-03T12:34:45.517Z,15.43
2018-05-03T12:35:45.978Z,15.42
2018-05-03T12:36:46.445Z,15.42
2018-05-03T12:37:46.921Z,15.42
2018-05-03T12:38:47.390Z,15.42
2018-05-03T12:39:47.865Z,15.40
2018-05-03T12:40:48.335Z,15.39
2018-05-03T12:41:48.806Z,15.39
2018-05-03T12:42:49.278Z,15.40
2018-05-03T12:43:49.752Z,15.39
2018-05-03T12:44:50.223Z,15.38
2018-05-03T12:45:50.695Z,15.38
2018-05-03T12:46:51.168Z,15.40
2018-05-03T12:47:51.640Z,15.39
2018-05-03T12:48:52.114Z,15.39
2018-05-03T12:49:52.588Z,15.40
2018-05-03T12:51:04.949Z,15.40
2018-05-03T12:51:53.547Z,15.38
2018-05-03T12:52:54.006Z,15.40
2018-05-03T12:53:54.479Z,15.38
2018-05-03T12:54:54.950Z,15.40
2018-05-03T12:55:55.426Z,15.39
2018-05-03T12:56:55.900Z,15.38
2018-05-03T12:57:56.376Z,15.40
2018-05-03T12:58:56.849Z,15.40
2018-05-03T12:59:57.324Z,15.40
2018-05-03T13:00:57.798Z,15.40
2018-05-03T13:01:58.275Z,15.40
2018-05-03T13:02:58.750Z,15.40
2018-05-03T13:03:59.226Z,15.40
2018-05-03T13:04:59.700Z,15.40
2018-05-03T13:06:00.175Z,15.40
2018-05-03T13:07:00.652Z,15.42
2018-05-03T13:08:01.128Z,15.42
2018-05-03T13:09:01.606Z,15.44
2018-05-03T13:10:02.082Z,15.43
2018-05-03T13:11:02.558Z,15.44
2018-05-03T13:12:03.036Z,15.44
2018-05-03T13:13:03.509Z,15.43
2018-05-03T13:14:03.988Z,15.44
2018-05-03T13:15:04.465Z,15.44
2018-05-03T13:16:04.941Z,15.44
2018-05-03T13:18:05.893Z,15.45
2018-05-03T13:19:06.367Z,15.46
2018-05-03T13:20:06.880Z,15.46